»·PEaware :: N124AG KSBA-KSBP

N124AG :: KSBA-KSBP

FLIGHT INFORMATION

Flight Status: Arrived
Operator: Privately registered:
United States
More flights under this callsign
Pilot: Michael M. (17510)
Aircraft: PIPER PA-31/31P NAVAJO CHIEFTAIN
(PA31)
More flights by this aircraft type
Origin: KSBA Santa Barbara Mun
United States
Destination: KSBP San Luis Co Regl
United States
More flights between these airports :: More routes between these airports
Route: +GAUCH2 GAUCH MQO
File this flight plan on PilotEdge
Remarks:
Altitude:
(Current/Filed)
6,000ft
Speed:
(Current/Filed)
190kts
Departed: 29-Jul-20 12:24 PM
Arrived: 29-Jul-20 01:04 PM
Distance/Time
Traveled:
63nm/0:40
Distance/Time
To Go:
Arrived

Flight Plot

Page will automatically refresh every two minutes.


Map Options




Map Legend


Flown Route
Filed Route
Departure Airport
Arrival Airport
Navaid (VOR, NDB)
Fix

Horizontal Profiles

Position Reports

Time Latitude Longitude Heading Altitude Ground
Speed
29-Jul-20 12:14 34.432567 -119.835095 71 16ft 0kts
29-Jul-20 12:15 34.432567 -119.835095 71 16ft 0kts
29-Jul-20 12:16 34.432567 -119.835095 71 16ft 0kts
29-Jul-20 12:17 34.432567 -119.835095 71 16ft 0kts
29-Jul-20 12:18 34.432567 -119.835095 71 16ft 0kts
29-Jul-20 12:19 34.432567 -119.835095 71 16ft 0kts
29-Jul-20 12:20 34.431540 -119.837051 250 16ft 10kts
29-Jul-20 12:21 34.430741 -119.839703 249 16ft 0kts
29-Jul-20 12:22 34.430705 -119.839821 249 16ft 7kts
29-Jul-20 12:23 34.417957 -119.836628 165 157ft 108kts
29-Jul-20 12:24 34.386593 -119.844687 226 1319ft 153kts
29-Jul-20 12:25 34.350830 -119.878125 214 2338ft 170kts
29-Jul-20 12:26 34.311115 -119.911378 214 3348ft 175kts
29-Jul-20 12:27 34.285389 -119.956961 262 4543ft 170kts
29-Jul-20 12:28 34.282544 -120.013571 267 5954ft 172kts
29-Jul-20 12:29 34.280313 -120.077441 267 6000ft 199kts
29-Jul-20 12:30 34.278087 -120.145647 272 5998ft 206kts
29-Jul-20 12:31 34.322787 -120.180978 344 6000ft 203kts
29-Jul-20 12:32 34.377252 -120.198942 345 6000ft 203kts
29-Jul-20 12:33 34.432033 -120.216807 345 6000ft 203kts
29-Jul-20 12:34 34.486702 -120.234658 345 6000ft 203kts
29-Jul-20 12:35 34.541377 -120.252536 345 6000ft 203kts
29-Jul-20 12:36 34.593282 -120.277267 321 6000ft 203kts
29-Jul-20 12:37 34.638008 -120.319334 322 6000ft 203kts
29-Jul-20 12:38 34.682859 -120.361451 322 6000ft 203kts
29-Jul-20 12:39 34.727671 -120.403518 322 6000ft 203kts
29-Jul-20 12:40 34.776671 -120.437991 331 6000ft 203kts
29-Jul-20 12:41 34.826202 -120.471551 331 6000ft 203kts
29-Jul-20 12:42 34.875820 -120.504895 331 6000ft 203kts
29-Jul-20 12:43 34.925427 -120.538323 330 5839ft 197kts
29-Jul-20 12:44 34.969078 -120.567934 331 5008ft 168kts
29-Jul-20 12:45 35.010706 -120.595717 331 4318ft 188kts
29-Jul-20 12:46 35.058838 -120.628219 331 3999ft 199kts
29-Jul-20 12:47 35.107041 -120.660868 330 3999ft 198kts
29-Jul-20 12:48 35.155261 -120.693528 330 3999ft 198kts
29-Jul-20 12:49 35.203368 -120.726152 330 4000ft 198kts
29-Jul-20 12:50 35.249248 -120.762237 296 3961ft 200kts
29-Jul-20 12:51 35.257996 -120.829765 276 3499ft 193kts
29-Jul-20 12:52 35.283713 -120.880899 321 3500ft 189kts
29-Jul-20 12:53 35.322098 -120.924065 284 3497ft 189kts
29-Jul-20 12:54 35.287799 -120.941282 141 3503ft 189kts
29-Jul-20 12:55 35.269724 -120.882797 97 3117ft 196kts
29-Jul-20 12:56 35.263942 -120.820807 96 2795ft 159kts
29-Jul-20 12:57 35.255422 -120.771756 103 2799ft 141kts
29-Jul-20 12:58 35.246418 -120.724016 103 2266ft 146kts
29-Jul-20 12:59 35.229593 -120.680991 119 1414ft 142kts
29-Jul-20 13:00 35.210905 -120.636186 116 1400ft 150kts
29-Jul-20 13:01 35.215642 -120.606348 335 785ft 114kts
29-Jul-20 13:02 35.233844 -120.634990 304 239ft 104kts
29-Jul-20 13:03 35.239855 -120.643542 123 216ft 15kts
29-Jul-20 13:04 35.239588 -120.642275 220 216ft 0kts

Navigation Log

Ident Type
Flight plan parsing failed, navigation log unavailable